Terminal Aerodrome Forecast
Issued by NWS

Home | Current Version | Previous Version | Text Only | Print | Product List | Glossary On
Versions: 1 2 3 4 5 6 7 8 9 10 11 12 13 14 15
000
FTUS43 KOAX 261229 CCA
TAFCDR
TAF COR
KCDR 261229Z 2612/2712 04005KT 4SM -RA BR OVC007
      TEMPO 2612/2614 OVC002
     FM261600 12008KT 4SM -RA BR OVC015
     FM270100 VRB04KT 6SM BR OVC030=

USA.gov is the U.S. government's official web portal to all federal, state and local government web resources and services.